createdAt,value
2018-12-27T00:00:16.255Z,1.98
2018-12-27T00:02:45.490Z,2.02
2018-12-27T00:05:14.548Z,1.92
2018-12-27T00:07:43.656Z,2.08
2018-12-27T00:10:12.557Z,2.02
2018-12-27T00:12:41.662Z,1.70
2018-12-27T00:15:10.838Z,1.92
2018-12-27T00:17:40.274Z,1.77
2018-12-27T00:20:09.431Z,1.95
2018-12-27T00:22:38.583Z,1.57
2018-12-27T00:25:07.760Z,1.80
2018-12-27T00:27:36.808Z,1.70
2018-12-27T00:30:06.078Z,1.70
2018-12-27T00:32:35.513Z,1.70
2018-12-27T00:35:04.594Z,1.70
2018-12-27T00:37:33.595Z,1.70
2018-12-27T00:40:02.608Z,1.62
2018-12-27T00:42:31.724Z,1.80
2018-12-27T00:45:01.311Z,1.55
2018-12-27T00:47:30.457Z,1.75
2018-12-27T00:49:59.498Z,1.65
2018-12-27T00:52:29.001Z,1.65
2018-12-27T00:54:58.023Z,1.80
2018-12-27T00:57:27.182Z,1.62
2018-12-27T00:59:56.422Z,1.80
2018-12-27T01:02:25.736Z,1.50
2018-12-27T01:04:55.260Z,2.00
2018-12-27T01:07:24.647Z,1.67
2018-12-27T01:09:53.792Z,1.50
2018-12-27T01:12:23.932Z,1.50
2018-12-27T01:14:53.292Z,1.70
2018-12-27T01:17:22.526Z,1.67
2018-12-27T01:19:51.468Z,1.50
2018-12-27T01:22:20.528Z,1.35
2018-12-27T01:24:50.326Z,1.50
2018-12-27T01:27:19.326Z,1.52
2018-12-27T01:29:48.540Z,1.72
2018-12-27T01:32:17.627Z,1.62
2018-12-27T01:34:46.675Z,1.55
2018-12-27T01:37:15.668Z,1.60
2018-12-27T01:39:44.714Z,1.50
2018-12-27T01:42:14.683Z,1.52
2018-12-27T01:44:43.695Z,1.40
2018-12-27T01:47:12.837Z,1.60
2018-12-27T01:49:42.169Z,1.30
2018-12-27T01:52:11.187Z,1.60
2018-12-27T01:54:40.226Z,1.62
2018-12-27T01:57:09.325Z,1.50
2018-12-27T01:59:39.361Z,1.40
2018-12-27T02:02:08.319Z,1.30
2018-12-27T02:04:37.389Z,1.40
2018-12-27T02:07:07.545Z,1.40
2018-12-27T02:09:36.477Z,1.40
2018-12-27T02:12:05.525Z,1.47
2018-12-27T02:14:34.614Z,1.47
2018-12-27T02:17:03.592Z,1.70
2018-12-27T02:19:33.239Z,1.37
2018-12-27T02:22:02.209Z,1.50
2018-12-27T02:24:31.414Z,1.60
2018-12-27T02:27:00.439Z,1.20
2018-12-27T02:29:29.469Z,1.50
2018-12-27T02:31:58.679Z,1.30
2018-12-27T02:34:27.646Z,1.30
2018-12-27T02:36:56.603Z,1.32
2018-12-27T02:39:25.653Z,1.45
2018-12-27T02:41:55.814Z,1.50
2018-12-27T02:44:24.951Z,1.47
2018-12-27T02:46:53.990Z,1.60
2018-12-27T02:49:23.257Z,1.40
2018-12-27T02:51:52.239Z,1.30
2018-12-27T02:54:21.304Z,1.20
2018-12-27T02:56:50.343Z,1.30
2018-12-27T02:59:19.326Z,1.30
2018-12-27T03:01:48.300Z,1.42
2018-12-27T03:04:17.393Z,1.40
2018-12-27T03:06:47.529Z,1.27
2018-12-27T03:09:16.460Z,1.27
2018-12-27T03:11:45.827Z,1.27
2018-12-27T03:14:15.050Z,1.27
2018-12-27T03:16:44.295Z,1.10
2018-12-27T03:19:13.303Z,1.40
2018-12-27T03:21:43.441Z,1.30
2018-12-27T03:24:14.072Z,1.20
2018-12-27T03:26:43.922Z,1.17
2018-12-27T03:29:13.674Z,1.30
2018-12-27T03:31:43.285Z,1.20
2018-12-27T03:34:12.386Z,1.30
2018-12-27T03:36:41.337Z,1.30
2018-12-27T03:39:10.722Z,1.20
2018-12-27T03:41:39.781Z,1.15
2018-12-27T03:44:08.966Z,1.30
2018-12-27T03:46:38.035Z,1.20
2018-12-27T03:49:07.132Z,1.30
2018-12-27T03:51:37.500Z,1.20
2018-12-27T03:54:06.473Z,1.25
2018-12-27T03:56:36.759Z,1.05
2018-12-27T03:59:06.294Z,1.17
2018-12-27T04:01:36.071Z,1.30
2018-12-27T04:04:05.196Z,1.10
2018-12-27T04:06:34.393Z,1.10
2018-12-27T04:09:04.233Z,1.20
2018-12-27T04:11:34.014Z,1.07
2018-12-27T04:14:03.382Z,1.17
2018-12-27T04:16:32.306Z,1.10
2018-12-27T04:19:02.555Z,1.10
2018-12-27T04:21:31.547Z,1.02
2018-12-27T04:24:00.365Z,1.32
2018-12-27T04:26:29.730Z,1.00
2018-12-27T04:28:59.913Z,1.00
2018-12-27T04:31:28.875Z,1.00
2018-12-27T04:33:58.139Z,1.20
2018-12-27T04:36:26.912Z,1.00
2018-12-27T04:38:59.236Z,1.00
2018-12-27T04:41:27.858Z,1.10
2018-12-27T04:43:56.928Z,1.10
2018-12-27T04:46:26.265Z,1.10
2018-12-27T04:48:55.634Z,0.90
2018-12-27T04:51:24.514Z,0.90
2018-12-27T04:53:54.145Z,1.10
2018-12-27T04:56:23.042Z,1.00
2018-12-27T04:58:51.839Z,1.17
2018-12-27T05:01:20.842Z,1.00
2018-12-27T05:03:50.495Z,1.00
2018-12-27T05:06:19.570Z,0.95
2018-12-27T05:08:48.326Z,0.90
2018-12-27T05:11:17.310Z,1.00
2018-12-27T05:13:46.951Z,1.00
2018-12-27T05:16:15.723Z,0.95
2018-12-27T05:18:44.619Z,1.10
2018-12-27T05:21:13.501Z,0.90
2018-12-27T05:23:42.568Z,1.00
2018-12-27T05:26:11.378Z,1.12
2018-12-27T05:28:40.221Z,0.90
2018-12-27T05:31:10.253Z,1.10
2018-12-27T05:33:39.127Z,1.00
2018-12-27T05:36:08.039Z,1.00
2018-12-27T05:38:36.989Z,0.80
2018-12-27T05:41:05.894Z,1.00
2018-12-27T05:43:35.476Z,0.90
2018-12-27T05:46:04.351Z,1.00
2018-12-27T05:48:33.414Z,0.90
2018-12-27T05:51:02.252Z,0.98
2018-12-27T05:53:31.180Z,0.80
2018-12-27T05:56:00.202Z,0.90
2018-12-27T05:58:29.184Z,0.90
2018-12-27T06:00:57.997Z,1.10
2018-12-27T06:03:26.912Z,0.85
2018-12-27T06:05:55.763Z,0.80
2018-12-27T06:08:24.580Z,1.00
2018-12-27T06:10:53.401Z,0.70
2018-12-27T06:13:22.292Z,0.82
2018-12-27T06:15:51.797Z,0.80
2018-12-27T06:18:20.682Z,0.98
2018-12-27T06:20:50.645Z,0.90
2018-12-27T06:23:19.476Z,0.90
2018-12-27T06:25:48.275Z,0.88
2018-12-27T06:28:17.115Z,0.90
2018-12-27T06:30:46.209Z,0.75
2018-12-27T06:33:16.220Z,0.80
2018-12-27T06:35:45.102Z,1.00
2018-12-27T06:38:13.986Z,1.00
2018-12-27T06:40:42.992Z,1.00
2018-12-27T06:43:11.871Z,0.80
2018-12-27T06:45:41.205Z,0.82
2018-12-27T06:48:10.137Z,0.80
2018-12-27T06:50:40.057Z,0.80
2018-12-27T06:53:10.054Z,0.80
2018-12-27T06:55:38.940Z,0.90
2018-12-27T06:58:08.942Z,0.80
2018-12-27T07:00:38.724Z,0.72
2018-12-27T07:03:07.480Z,0.90
2018-12-27T07:05:36.792Z,0.90
2018-12-27T07:08:05.686Z,0.80
2018-12-27T07:10:34.852Z,0.90
2018-12-27T07:13:03.840Z,0.82
2018-12-27T07:15:33.304Z,0.80
2018-12-27T07:18:02.081Z,0.80
2018-12-27T07:20:30.871Z,0.70
2018-12-27T07:22:59.707Z,0.70
2018-12-27T07:25:29.630Z,0.80
2018-12-27T07:27:58.444Z,0.72
2018-12-27T07:30:27.313Z,0.80
2018-12-27T07:32:56.276Z,0.80
2018-12-27T07:35:25.099Z,0.80
2018-12-27T07:37:53.936Z,0.80
2018-12-27T07:40:22.837Z,0.70
2018-12-27T07:42:52.339Z,0.70
2018-12-27T07:45:21.295Z,0.80
2018-12-27T07:47:51.294Z,0.80
2018-12-27T07:50:20.229Z,0.75
2018-12-27T07:52:48.994Z,0.70
2018-12-27T07:55:18.267Z,0.80
2018-12-27T07:57:51.595Z,0.90
2018-12-27T08:00:20.926Z,0.70
2018-12-27T08:02:49.740Z,0.60
2018-12-27T08:05:18.538Z,0.82
2018-12-27T08:07:51.170Z,0.62
2018-12-27T08:10:19.952Z,0.80
2018-12-27T08:12:52.792Z,0.80
2018-12-27T08:15:22.155Z,0.93
2018-12-27T08:17:51.286Z,0.80
2018-12-27T08:20:20.463Z,0.90
2018-12-27T08:22:49.661Z,0.90
2018-12-27T08:25:18.442Z,0.70
2018-12-27T08:27:49.402Z,0.90
2018-12-27T08:30:18.293Z,1.00
2018-12-27T08:32:48.016Z,0.95
2018-12-27T08:35:17.392Z,0.78
2018-12-27T08:37:47.711Z,0.90
2018-12-27T08:40:17.204Z,0.93
2018-12-27T08:42:48.208Z,0.90
2018-12-27T08:45:17.109Z,1.07
2018-12-27T08:47:48.078Z,0.90
2018-12-27T08:50:17.425Z,1.00
2018-12-27T08:52:48.959Z,0.90
2018-12-27T08:55:18.014Z,1.00
2018-12-27T08:57:49.950Z,0.93
2018-12-27T09:00:19.259Z,1.02
2018-12-27T09:02:51.672Z,1.10
2018-12-27T09:05:20.535Z,1.15
2018-12-27T09:07:49.887Z,1.25
2018-12-27T09:10:19.213Z,1.12
2018-12-27T09:12:49.821Z,1.20
2018-12-27T09:15:20.051Z,1.30
2018-12-27T09:17:49.044Z,1.35
2018-12-27T09:20:17.999Z,1.35
2018-12-27T09:22:48.126Z,1.50
2018-12-27T09:25:17.488Z,1.35
2018-12-27T09:27:47.052Z,1.60
2018-12-27T09:30:15.948Z,1.50
2018-12-27T09:32:45.061Z,1.40
2018-12-27T09:35:14.314Z,1.50
2018-12-27T09:37:43.596Z,1.42
2018-12-27T09:40:12.670Z,1.52
2018-12-27T09:42:41.644Z,1.70
2018-12-27T09:45:10.887Z,1.45
2018-12-27T09:47:40.934Z,1.82
2018-12-27T09:50:10.241Z,1.67
2018-12-27T09:52:39.529Z,1.85
2018-12-27T09:55:08.536Z,1.70
2018-12-27T09:57:38.216Z,1.60
2018-12-27T10:00:07.274Z,1.70
2018-12-27T10:02:36.846Z,1.70
2018-12-27T10:05:05.691Z,1.70
2018-12-27T10:07:34.621Z,1.55
2018-12-27T10:10:04.089Z,1.90
2018-12-27T10:12:33.047Z,1.50
2018-12-27T10:15:02.789Z,1.70
2018-12-27T10:17:31.811Z,1.70
2018-12-27T10:20:01.335Z,1.75
2018-12-27T10:22:30.121Z,1.60
2018-12-27T10:24:58.973Z,1.67
2018-12-27T10:27:29.174Z,1.77
2018-12-27T10:29:58.616Z,2.00
2018-12-27T10:32:27.502Z,1.80
2018-12-27T10:34:56.919Z,1.82
2018-12-27T10:37:26.595Z,1.92
2018-12-27T10:39:55.398Z,1.70
2018-12-27T10:42:25.162Z,1.60
2018-12-27T10:44:54.893Z,1.92
2018-12-27T10:47:26.722Z,1.60
2018-12-27T10:49:55.816Z,1.60
2018-12-27T10:52:24.905Z,2.10
2018-12-27T10:54:53.934Z,1.90
2018-12-27T10:57:23.675Z,1.87
2018-12-27T10:59:52.695Z,1.90
2018-12-27T11:02:21.589Z,1.90
2018-12-27T11:04:50.758Z,1.82
2018-12-27T11:07:19.648Z,1.90
2018-12-27T11:09:48.694Z,1.77
2018-12-27T11:12:17.918Z,1.80
2018-12-27T11:14:47.304Z,1.82
2018-12-27T11:17:16.268Z,1.62
2018-12-27T11:19:45.378Z,2.20
2018-12-27T11:22:15.064Z,2.02
2018-12-27T11:24:44.126Z,1.80
2018-12-27T11:27:12.954Z,1.98
2018-12-27T11:29:42.036Z,2.20
2018-12-27T11:32:10.975Z,1.98
2018-12-27T11:34:40.267Z,1.82
2018-12-27T11:37:09.156Z,1.77
2018-12-27T11:39:37.966Z,2.20
2018-12-27T11:42:07.332Z,2.00
2018-12-27T11:44:36.292Z,2.17
2018-12-27T11:47:05.489Z,2.22
2018-12-27T11:49:35.120Z,2.10
2018-12-27T11:52:04.969Z,2.00
2018-12-27T11:54:33.803Z,2.00
2018-12-27T11:57:02.963Z,2.17
2018-12-27T11:59:32.046Z,2.00
2018-12-27T12:02:02.017Z,2.05
2018-12-27T12:04:30.856Z,2.10
2018-12-27T12:07:00.164Z,2.17
2018-12-27T12:09:29.801Z,2.15
2018-12-27T12:11:58.702Z,2.40
2018-12-27T12:14:27.797Z,2.00
2018-12-27T12:16:56.907Z,2.52
2018-12-27T12:19:25.830Z,2.10
2018-12-27T12:21:55.862Z,2.25
2018-12-27T12:24:25.079Z,2.30
2018-12-27T12:26:54.438Z,2.50
2018-12-27T12:29:24.520Z,2.02
2018-12-27T12:31:53.543Z,2.40
2018-12-27T12:34:22.331Z,1.98
2018-12-27T12:36:51.293Z,2.55
2018-12-27T12:39:20.149Z,2.60
2018-12-27T12:41:49.031Z,2.40
2018-12-27T12:44:19.032Z,2.10
2018-12-27T12:46:48.325Z,2.05
2018-12-27T12:49:17.225Z,2.47
2018-12-27T12:51:46.114Z,2.17
2018-12-27T12:54:15.225Z,2.60
2018-12-27T12:56:44.070Z,2.60
2018-12-27T12:59:12.994Z,2.40
2018-12-27T13:01:42.596Z,2.15
2018-12-27T13:04:11.363Z,2.40
2018-12-27T13:06:40.443Z,2.35
2018-12-27T13:09:09.326Z,2.10
2018-12-27T13:11:38.762Z,2.17
2018-12-27T13:14:07.686Z,2.17
2018-12-27T13:16:36.550Z,2.27
2018-12-27T13:19:05.587Z,2.22
2018-12-27T13:21:34.704Z,2.30
2018-12-27T13:24:03.605Z,2.42
2018-12-27T13:26:34.450Z,2.25
2018-12-27T13:29:04.036Z,2.45
2018-12-27T13:31:33.428Z,2.40
2018-12-27T13:34:02.652Z,2.40
2018-12-27T13:36:31.685Z,2.45
2018-12-27T13:39:01.753Z,2.30
2018-12-27T13:41:30.622Z,2.67
2018-12-27T13:43:59.628Z,2.60
2018-12-27T13:46:28.531Z,2.40
2018-12-27T13:48:57.492Z,2.30
2018-12-27T13:51:27.610Z,2.45
2018-12-27T13:53:56.638Z,2.30
2018-12-27T13:56:25.554Z,2.10
2018-12-27T13:58:54.573Z,2.37
2018-12-27T14:01:24.089Z,2.33
2018-12-27T14:03:53.514Z,2.35
2018-12-27T14:06:22.261Z,2.22
2018-12-27T14:08:51.139Z,2.30
2018-12-27T14:11:20.107Z,2.20
2018-12-27T14:13:49.045Z,2.00
2018-12-27T14:16:18.313Z,2.17
2018-12-27T14:18:48.377Z,2.33
2018-12-27T14:21:18.386Z,2.20
2018-12-27T14:23:48.331Z,2.22
2018-12-27T14:26:18.094Z,2.10
2018-12-27T14:28:47.217Z,2.70
2018-12-27T14:31:16.056Z,2.55
2018-12-27T14:33:45.813Z,2.22
2018-12-27T14:36:14.911Z,2.47
2018-12-27T14:38:46.360Z,2.08
2018-12-27T14:41:15.483Z,2.30
2018-12-27T14:43:44.300Z,2.35
2018-12-27T14:46:13.637Z,2.40
2018-12-27T14:48:42.618Z,2.25
2018-12-27T14:51:11.760Z,1.90
2018-12-27T14:53:40.623Z,2.20
2018-12-27T14:56:10.809Z,2.17
2018-12-27T14:58:39.643Z,2.20
2018-12-27T15:01:08.487Z,2.25
2018-12-27T15:03:37.867Z,1.87
2018-12-27T15:06:06.632Z,2.00
2018-12-27T15:08:36.341Z,2.15
2018-12-27T15:11:05.114Z,2.20
2018-12-27T15:13:33.989Z,2.08
2018-12-27T15:16:02.844Z,2.35
2018-12-27T15:18:32.352Z,2.20
2018-12-27T15:21:01.219Z,2.30
2018-12-27T15:23:30.210Z,1.82
2018-12-27T15:25:59.079Z,2.50
2018-12-27T15:28:27.999Z,2.20
2018-12-27T15:30:57.376Z,2.30
2018-12-27T15:33:26.506Z,2.37
2018-12-27T15:35:55.515Z,2.22
2018-12-27T15:38:24.465Z,2.50
2018-12-27T15:40:54.153Z,2.20
2018-12-27T15:43:24.174Z,2.33
2018-12-27T15:45:53.459Z,2.65
2018-12-27T15:48:22.704Z,2.20
2018-12-27T15:50:52.050Z,2.52
2018-12-27T15:53:21.209Z,2.30
2018-12-27T15:55:50.744Z,2.10
2018-12-27T15:58:20.026Z,2.02
2018-12-27T16:00:49.755Z,2.42
2018-12-27T16:03:19.311Z,2.37
2018-12-27T16:05:51.720Z,2.37
2018-12-27T16:08:21.462Z,2.80
2018-12-27T16:10:50.563Z,2.30
2018-12-27T16:13:20.387Z,2.30
2018-12-27T16:15:49.556Z,2.12
2018-12-27T16:18:18.551Z,2.45
2018-12-27T16:20:48.524Z,2.17
2018-12-27T16:23:17.310Z,2.27
2018-12-27T16:25:46.543Z,2.42
2018-12-27T16:28:15.951Z,2.40
2018-12-27T16:30:45.456Z,2.30
2018-12-27T16:33:15.133Z,2.33
2018-12-27T16:35:44.495Z,2.58
2018-12-27T16:38:13.931Z,2.62
2018-12-27T16:40:43.052Z,2.50
2018-12-27T16:43:11.938Z,2.37
2018-12-27T16:45:41.800Z,2.37
2018-12-27T16:48:11.002Z,2.35
2018-12-27T16:50:39.994Z,2.20
2018-12-27T16:53:09.618Z,2.47
2018-12-27T16:55:40.206Z,2.60
2018-12-27T16:58:09.753Z,2.42
2018-12-27T17:00:38.879Z,2.30
2018-12-27T17:03:08.984Z,2.20
2018-12-27T17:05:37.988Z,2.50
2018-12-27T17:08:07.160Z,2.50
2018-12-27T17:10:36.474Z,2.50
2018-12-27T17:13:05.387Z,2.45
2018-12-27T17:15:34.422Z,2.42
2018-12-27T17:18:03.620Z,2.55
2018-12-27T17:20:32.583Z,2.45
2018-12-27T17:23:02.116Z,2.37
2018-12-27T17:25:32.011Z,2.20
2018-12-27T17:28:01.230Z,2.35
2018-12-27T17:30:31.226Z,2.40
2018-12-27T17:33:03.483Z,2.27
2018-12-27T17:35:34.105Z,2.70
2018-12-27T17:38:03.435Z,2.05
2018-12-27T17:40:32.492Z,2.45
2018-12-27T17:43:01.430Z,2.50
2018-12-27T17:45:31.781Z,2.50
2018-12-27T17:48:02.105Z,2.70
2018-12-27T17:50:31.068Z,2.40
2018-12-27T17:53:00.939Z,2.15
2018-12-27T17:55:29.918Z,2.33
2018-12-27T17:57:59.266Z,1.90
2018-12-27T18:00:28.315Z,2.20
2018-12-27T18:02:57.215Z,2.62
2018-12-27T18:05:27.209Z,2.37
2018-12-27T18:07:57.151Z,2.58
2018-12-27T18:10:27.045Z,2.60
2018-12-27T18:12:56.435Z,2.50
2018-12-27T18:15:25.383Z,2.40
2018-12-27T18:17:55.074Z,2.33
2018-12-27T18:20:25.122Z,2.20
2018-12-27T18:22:54.881Z,2.40
2018-12-27T18:25:25.114Z,2.37
2018-12-27T18:27:54.873Z,2.50
2018-12-27T18:30:24.029Z,2.52
2018-12-27T18:32:53.454Z,2.35
2018-12-27T18:35:23.264Z,2.62
2018-12-27T18:37:52.712Z,2.20
2018-12-27T18:40:22.066Z,2.50
2018-12-27T18:42:51.741Z,2.40
2018-12-27T18:45:21.572Z,2.30
2018-12-27T18:47:51.810Z,2.30
2018-12-27T18:50:22.116Z,2.00
2018-12-27T18:52:52.119Z,2.55
2018-12-27T18:55:21.409Z,2.10
2018-12-27T18:57:51.252Z,2.50
2018-12-27T19:00:20.800Z,2.50
2018-12-27T19:02:50.513Z,1.82
2018-12-27T19:05:20.126Z,2.20
2018-12-27T19:07:49.784Z,2.30
2018-12-27T19:10:19.044Z,2.30
2018-12-27T19:13:06.506Z,2.37
2018-12-27T19:15:38.263Z,2.10
2018-12-27T19:18:23.123Z,2.45
2018-12-27T19:20:55.945Z,2.40
2018-12-27T19:23:26.161Z,2.30
2018-12-27T19:25:55.651Z,2.33
2018-12-27T19:28:25.159Z,2.42
2018-12-27T19:30:55.996Z,2.30
2018-12-27T19:33:26.047Z,2.22
2018-12-27T19:35:56.827Z,2.17
2018-12-27T19:38:27.472Z,2.30
2018-12-27T19:40:57.750Z,2.20
2018-12-27T19:43:28.036Z,2.10
2018-12-27T19:45:58.259Z,2.02
2018-12-27T19:48:28.610Z,2.35
2018-12-27T19:50:58.089Z,2.40
2018-12-27T19:53:28.494Z,2.33
2018-12-27T19:55:59.313Z,2.27
2018-12-27T19:58:29.294Z,2.10
2018-12-27T20:00:59.561Z,2.35
2018-12-27T20:03:29.137Z,2.25
2018-12-27T20:05:59.752Z,2.30
2018-12-27T20:08:30.283Z,2.22
2018-12-27T20:11:00.917Z,2.33
2018-12-27T20:13:30.526Z,2.10
2018-12-27T20:16:00.550Z,2.27
2018-12-27T20:18:30.301Z,2.20
2018-12-27T20:20:59.854Z,2.22
2018-12-27T20:23:29.640Z,2.30
2018-12-27T20:25:58.953Z,2.20
2018-12-27T20:28:30.420Z,2.10
2018-12-27T20:31:00.841Z,2.35
2018-12-27T20:33:29.937Z,2.10
2018-12-27T20:35:59.296Z,2.27
2018-12-27T20:38:29.525Z,2.10
2018-12-27T20:40:58.613Z,2.20
2018-12-27T20:43:29.961Z,2.20
2018-12-27T20:45:59.304Z,2.10
2018-12-27T20:48:28.596Z,2.22
2018-12-27T20:50:58.052Z,2.42
2018-12-27T20:53:27.965Z,2.00
2018-12-27T20:55:57.435Z,2.17
2018-12-27T20:58:26.953Z,2.10
2018-12-27T21:00:56.653Z,2.30
2018-12-27T21:03:26.032Z,2.00
2018-12-27T21:05:55.687Z,2.15
2018-12-27T21:08:24.977Z,2.40
2018-12-27T21:10:54.839Z,2.08
2018-12-27T21:13:23.843Z,2.08
2018-12-27T21:15:53.566Z,2.02
2018-12-27T21:18:23.684Z,2.12
2018-12-27T21:20:54.036Z,2.08
2018-12-27T21:23:22.928Z,1.85
2018-12-27T21:25:52.016Z,1.87
2018-12-27T21:28:22.306Z,2.15
2018-12-27T21:30:51.947Z,2.42
2018-12-27T21:33:21.369Z,2.15
2018-12-27T21:35:51.174Z,2.22
2018-12-27T21:38:21.498Z,2.00
2018-12-27T21:40:51.331Z,1.82
2018-12-27T21:43:21.226Z,2.15
2018-12-27T21:45:50.264Z,2.17
2018-12-27T21:48:19.482Z,2.30
2018-12-27T21:50:48.582Z,2.10
2018-12-27T21:53:17.666Z,2.30
2018-12-27T21:55:46.743Z,2.20
2018-12-27T21:58:15.884Z,2.30
2018-12-27T22:00:44.972Z,2.17
2018-12-27T22:03:14.005Z,2.10
2018-12-27T22:05:43.080Z,1.98
2018-12-27T22:08:12.032Z,2.02
2018-12-27T22:10:41.108Z,2.10
2018-12-27T22:13:10.126Z,2.10
2018-12-27T22:15:39.146Z,2.10
2018-12-27T22:18:08.457Z,2.40
2018-12-27T22:20:40.666Z,2.45
2018-12-27T22:23:09.857Z,2.10
2018-12-27T22:25:38.834Z,2.12
2018-12-27T22:28:09.097Z,2.00
2018-12-27T22:30:38.274Z,2.10
2018-12-27T22:33:07.373Z,2.10
2018-12-27T22:35:36.439Z,1.92
2018-12-27T22:38:05.477Z,2.08
2018-12-27T22:40:36.170Z,2.33
2018-12-27T22:43:05.161Z,2.00
2018-12-27T22:45:34.197Z,2.10
2018-12-27T22:48:03.313Z,1.98
2018-12-27T22:50:32.440Z,1.80
2018-12-27T22:53:01.739Z,2.30
2018-12-27T22:55:30.741Z,2.12
2018-12-27T22:57:59.685Z,1.90
2018-12-27T23:00:37.649Z,2.10
2018-12-27T23:03:06.855Z,2.10
2018-12-27T23:05:35.804Z,1.92
2018-12-27T23:08:04.827Z,1.98
2018-12-27T23:10:33.968Z,1.92
2018-12-27T23:13:03.014Z,2.12
2018-12-27T23:15:31.981Z,1.90
2018-12-27T23:18:00.949Z,2.33
2018-12-27T23:20:30.282Z,1.92
2018-12-27T23:22:59.328Z,1.90
2018-12-27T23:25:28.320Z,2.00
2018-12-27T23:27:57.418Z,2.00
2018-12-27T23:30:26.499Z,2.15
2018-12-27T23:32:55.570Z,2.10
2018-12-27T23:35:24.683Z,2.02
2018-12-27T23:37:53.737Z,1.90
2018-12-27T23:40:22.946Z,1.95
2018-12-27T23:42:52.178Z,1.90
2018-12-27T23:45:21.226Z,1.98
2018-12-27T23:47:50.525Z,1.98
2018-12-27T23:50:19.822Z,2.08
2018-12-27T23:52:49.895Z,1.80
2018-12-27T23:55:19.723Z,1.92
2018-12-27T23:57:49.195Z,1.82
